Time;durP1;ratioP1;P1;durP2;ratioP2;P2;SDS_P1;SDS_P2;PMS_P1;PMS_P2;Temp;Humidity;BMP_temperature;BMP_pressure;BME280_temperature;BME280_humidity;BME280_pressure;Samples;Min_cycle;Max_cycle;Signal;HPM_P1;HPM_P2
2023/06/13 00:02:01;;;;;;;15.15;5.03;;;17.20;99.90;;;;;;5075709;28;20032;-82
2023/06/13 00:04:30;;;;;;;5.90;4.50;;;17.20;99.90;;;;;;5070656;28;20028;-83
2023/06/13 00:06:57;;;;;;;8.63;3.88;;;17.10;99.90;;;;;;5080295;28;20036;-82
2023/06/13 00:09:24;;;;;;;5.10;3.80;;;16.90;99.90;;;;;;5073318;28;20415;-82
2023/06/13 00:11:50;;;;;;;9.15;4.43;;;16.80;99.90;;;;;;5064960;28;20105;-82
2023/06/13 00:14:16;;;;;;;5.65;4.40;;;16.70;99.90;;;;;;5077382;28;20466;-82
2023/06/13 00:16:47;;;;;;;9.68;4.60;;;16.60;99.90;;;;;;5079911;28;20483;-82
2023/06/13 00:19:14;;;;;;;10.27;4.50;;;16.40;99.90;;;;;;5067033;28;20044;-82
2023/06/13 00:21:41;;;;;;;6.72;4.47;;;16.30;99.90;;;;;;5071855;28;20465;-82
2023/06/13 00:24:07;;;;;;;8.93;4.72;;;16.10;99.90;;;;;;5071125;28;20476;-82
2023/06/13 00:26:33;;;;;;;7.90;4.95;;;16.00;99.90;;;;;;5078670;28;20028;-82
2023/06/13 00:28:59;;;;;;;10.23;4.85;;;15.90;99.90;;;;;;5074062;28;20036;-82
2023/06/13 00:31:29;;;;;;;15.43;5.07;;;15.80;99.90;;;;;;5069260;28;20090;-82
2023/06/13 00:34:01;;;;;;;14.35;5.25;;;15.70;99.90;;;;;;5073511;28;20485;-82
2023/06/13 00:36:28;;;;;;;8.57;5.68;;;15.60;99.90;;;;;;5066620;28;20072;-82
2023/06/13 00:38:57;;;;;;;5.25;3.97;;;15.50;99.90;;;;;;5067794;28;20443;-82
2023/06/13 00:41:23;;;;;;;6.78;4.20;;;15.40;99.90;;;;;;5077425;28;20469;-83
2023/06/13 00:43:48;;;;;;;7.72;4.57;;;15.40;99.90;;;;;;5073935;28;20027;-83
2023/06/13 00:46:23;;;;;;;10.50;5.22;;;15.30;99.90;;;;;;5085298;28;20031;-82
2023/06/13 00:48:48;;;;;;;8.07;4.57;;;15.30;99.90;;;;;;5068230;28;20115;-83
2023/06/13 00:51:14;;;;;;;11.73;6.07;;;15.20;99.90;;;;;;5075421;28;20174;-82
2023/06/13 00:53:41;;;;;;;9.68;4.97;;;15.20;99.90;;;;;;5069195;28;20040;-82
2023/06/13 00:56:07;;;;;;;6.97;4.53;;;15.10;99.90;;;;;;5073975;28;20232;-83
2023/06/13 00:58:33;;;;;;;8.63;4.72;;;15.10;99.90;;;;;;5081678;28;20038;-82
2023/06/13 01:01:02;;;;;;;6.93;4.85;;;15.10;99.90;;;;;;5076120;28;20028;-83
2023/06/13 01:03:29;;;;;;;8.68;4.80;;;15.10;99.90;;;;;;5070860;28;20036;-82
2023/06/13 01:05:55;;;;;;;9.55;5.22;;;15.00;99.90;;;;;;5078993;28;20028;-83
2023/06/13 01:08:23;;;;;;;8.35;5.15;;;14.90;99.90;;;;;;5075982;28;20039;-82
2023/06/13 01:10:59;;;;;;;5.75;4.80;;;14.90;99.90;;;;;;5067956;28;20093;-82
2023/06/13 01:13:34;;;;;;;8.57;5.75;;;14.80;99.90;;;;;;5074949;28;20055;-82
2023/06/13 01:16:10;;;;;;;9.47;4.97;;;14.80;99.90;;;;;;5067769;28;20024;-82
2023/06/13 01:18:38;;;;;;;;;;;14.70;99.90;;;;;;5067252;28;20318;-82
2023/06/13 01:21:05;;;;;;;11.82;5.00;;;14.60;99.90;;;;;;5076872;28;19919;-82
2023/06/13 01:23:49;;;;;;;7.95;5.70;;;14.60;99.90;;;;;;5070881;28;20492;-82
2023/06/13 01:26:33;;;;;;;8.75;4.82;;;14.60;99.90;;;;;;5073614;28;20414;-82
2023/06/13 01:29:01;;;;;;;11.20;4.88;;;14.60;99.90;;;;;;5076738;28;20496;-82
2023/06/13 01:31:28;;;;;;;6.53;4.55;;;14.60;99.90;;;;;;5068664;28;20047;-82
2023/06/13 01:33:55;;;;;;;7.43;5.00;;;14.60;99.90;;;;;;5081767;28;20044;-83
2023/06/13 01:36:21;;;;;;;7.45;5.18;;;14.60;99.90;;;;;;5075950;28;20047;-83
2023/06/13 01:38:47;;;;;;;11.25;5.65;;;14.50;99.90;;;;;;5074632;28;20481;-82
2023/06/13 01:41:13;;;;;;;10.30;4.72;;;14.40;99.90;;;;;;5073352;28;20115;-82
2023/06/13 01:43:38;;;;;;;13.73;5.53;;;14.30;99.90;;;;;;5079764;28;20119;-82
2023/06/13 01:46:20;;;;;;;6.95;4.70;;;14.30;99.90;;;;;;5076918;28;20031;-82
2023/06/13 01:49:32;;;;;;;6.38;4.47;;;14.20;99.90;;;;;;5069317;28;20020;-82
2023/06/13 01:52:20;;;;;;;6.88;4.88;;;14.20;99.90;;;;;;5058680;28;20085;-82
2023/06/13 01:54:48;;;;;;;7.35;5.20;;;14.20;99.90;;;;;;5071111;28;20381;-83
2023/06/13 01:57:17;;;;;;;7.60;4.88;;;14.20;99.90;;;;;;5078478;28;20021;-82
2023/06/13 01:59:43;;;;;;;6.75;4.68;;;14.30;99.90;;;;;;5078330;28;20484;-82
2023/06/13 02:02:10;;;;;;;7.38;4.63;;;14.30;99.90;;;;;;5079230;28;20051;-83
2023/06/13 02:04:40;;;;;;;8.63;5.30;;;14.30;99.90;;;;;;5081596;28;20290;-83
2023/06/13 02:07:06;;;;;;;10.40;5.32;;;14.30;99.90;;;;;;5081265;28;20020;-82
2023/06/13 02:09:32;;;;;;;9.57;4.90;;;14.30;99.90;;;;;;5066681;28;20162;-82
2023/06/13 02:11:58;;;;;;;6.45;4.35;;;14.20;99.90;;;;;;5079462;28;20032;-82
2023/06/13 02:14:23;;;;;;;10.30;4.53;;;14.20;99.90;;;;;;5080470;28;20023;-82
2023/06/13 02:16:49;;;;;;;6.88;4.43;;;14.10;99.90;;;;;;5070262;28;20085;-82
2023/06/13 02:19:15;;;;;;;8.82;5.45;;;14.00;99.90;;;;;;5081851;28;20477;-82
2023/06/13 02:21:45;;;;;;;8.52;5.32;;;14.00;99.90;;;;;;5082654;28;20028;-82
2023/06/13 02:24:14;;;;;;;7.75;5.10;;;13.90;99.90;;;;;;5065837;28;20056;-82
2023/06/13 02:26:40;;;;;;;8.75;4.80;;;13.90;99.90;;;;;;5079146;28;20024;-82
2023/06/13 02:29:07;;;;;;;9.43;4.82;;;13.90;99.90;;;;;;5077978;28;20028;-82
2023/06/13 02:31:35;;;;;;;7.95;5.13;;;13.80;99.90;;;;;;5075725;28;20090;-82
2023/06/13 02:34:01;;;;;;;7.70;5.57;;;13.80;99.90;;;;;;5065463;28;20256;-82
2023/06/13 02:36:27;;;;;;;6.93;4.95;;;13.70;99.90;;;;;;5082031;28;20030;-82
2023/06/13 02:38:52;;;;;;;13.23;6.25;;;13.70;99.90;;;;;;5083513;28;20039;-82
2023/06/13 02:41:18;;;;;;;10.77;5.15;;;13.70;99.90;;;;;;5087169;28;20059;-82
2023/06/13 02:43:44;;;;;;;12.38;5.10;;;13.60;99.90;;;;;;5080413;28;20028;-82
2023/06/13 02:46:10;;;;;;;9.23;5.63;;;13.60;99.90;;;;;;5082456;28;20549;-83
2023/06/13 02:48:36;;;;;;;5.45;4.38;;;13.50;99.90;;;;;;5081195;28;20214;-82
2023/06/13 02:51:03;;;;;;;7.05;4.75;;;13.40;99.90;;;;;;5089287;28;20057;-82
2023/06/13 02:53:29;;;;;;;6.78;4.40;;;13.40;99.90;;;;;;5079331;28;20517;-83
2023/06/13 02:55:54;;;;;;;7.35;5.55;;;13.40;99.90;;;;;;5075870;28;20111;-82
2023/06/13 02:58:20;;;;;;;6.40;4.75;;;13.40;99.90;;;;;;5076245;28;20026;-82
2023/06/13 03:00:48;;;;;;;11.35;5.55;;;13.40;99.90;;;;;;5079025;28;20028;-82
2023/06/13 03:03:16;;;;;;;10.77;5.28;;;13.40;99.90;;;;;;5075610;28;20440;-82
2023/06/13 03:05:44;;;;;;;8.85;5.25;;;13.50;99.90;;;;;;5086712;28;20024;-82
2023/06/13 03:08:11;;;;;;;12.38;5.43;;;13.50;99.90;;;;;;5081113;28;20441;-83
2023/06/13 03:10:37;;;;;;;8.52;5.20;;;13.40;99.90;;;;;;5074078;28;20039;-83
2023/06/13 03:13:03;;;;;;;8.57;4.88;;;13.40;99.90;;;;;;5076611;28;20048;-83
2023/06/13 03:15:28;;;;;;;9.48;5.50;;;13.20;99.90;;;;;;5076645;28;20024;-82
2023/06/13 03:17:54;;;;;;;10.38;5.78;;;13.20;99.90;;;;;;5078792;28;20431;-83
2023/06/13 03:20:21;;;;;;;6.43;5.00;;;13.10;99.90;;;;;;5078534;28;20025;-83
2023/06/13 03:22:47;;;;;;;11.57;5.20;;;13.20;99.90;;;;;;5082430;28;20036;-83
2023/06/13 03:25:16;;;;;;;16.77;5.57;;;13.20;99.90;;;;;;5074371;28;20030;-82
2023/06/13 03:27:42;;;;;;;8.02;4.90;;;13.20;99.90;;;;;;5060332;28;20027;-82
2023/06/13 03:30:08;;;;;;;8.85;5.07;;;13.20;99.90;;;;;;5068506;28;20028;-83
2023/06/13 03:32:34;;;;;;;8.15;5.35;;;13.20;99.90;;;;;;5072030;28;20052;-82
2023/06/13 03:35:00;;;;;;;5.88;4.40;;;13.20;99.90;;;;;;5074847;28;20025;-83
2023/06/13 03:37:25;;;;;;;9.65;4.68;;;13.30;99.90;;;;;;5070081;28;20153;-83
2023/06/13 03:39:51;;;;;;;11.05;5.07;;;13.30;99.90;;;;;;5078961;28;20408;-83
2023/06/13 03:42:16;;;;;;;5.75;4.55;;;13.30;99.90;;;;;;5082141;28;20020;-83
2023/06/13 03:44:46;;;;;;;9.23;4.70;;;13.30;99.90;;;;;;5077066;28;20025;-82
2023/06/13 03:47:13;;;;;;;8.45;4.97;;;13.30;99.90;;;;;;5076590;28;20165;-82
2023/06/13 03:49:38;;;;;;;16.15;4.85;;;13.30;99.90;;;;;;5074722;28;20085;-84
2023/06/13 03:52:04;;;;;;;10.80;5.50;;;13.40;99.90;;;;;;5078314;28;20522;-84
2023/06/13 03:54:29;;;;;;;6.55;4.82;;;13.40;99.90;;;;;;5079265;28;20020;-83
2023/06/13 03:56:55;;;;;;;13.68;5.50;;;13.40;99.90;;;;;;5086511;28;20397;-83
2023/06/13 03:59:20;;;;;;;8.70;5.00;;;13.40;99.90;;;;;;5072070;28;20108;-83
2023/06/13 04:01:46;;;;;;;10.10;4.90;;;13.40;99.90;;;;;;5072902;28;20048;-83
2023/06/13 04:04:12;;;;;;;9.52;6.00;;;13.40;99.90;;;;;;5072345;28;20113;-83
2023/06/13 04:06:37;;;;;;;7.50;5.60;;;13.40;99.90;;;;;;5071796;28;20028;-83
2023/06/13 04:09:05;;;;;;;9.55;5.13;;;13.50;99.90;;;;;;5071898;28;20111;-83
2023/06/13 04:11:31;;;;;;;6.80;4.95;;;13.50;99.90;;;;;;5066347;28;20112;-83
2023/06/13 04:13:57;;;;;;;14.02;5.65;;;13.60;99.90;;;;;;5081704;28;20489;-82
2023/06/13 04:16:22;;;;;;;6.43;4.15;;;13.60;99.90;;;;;;5073105;28;20123;-83
2023/06/13 04:18:48;;;;;;;8.85;5.72;;;13.70;99.90;;;;;;5071377;28;20051;-83
2023/06/13 04:21:14;;;;;;;11.75;6.32;;;13.70;99.90;;;;;;5077452;28;20024;-83
2023/06/13 04:23:39;;;;;;;11.25;5.20;;;13.80;99.90;;;;;;5069853;28;20390;-83
2023/06/13 04:26:05;;;;;;;7.63;5.50;;;13.80;99.90;;;;;;5073615;28;20111;-84
2023/06/13 04:28:32;;;;;;;8.15;5.60;;;13.90;99.90;;;;;;5077016;28;20094;-84
2023/06/13 04:31:03;;;;;;;11.18;5.32;;;13.90;99.90;;;;;;5073876;28;20111;-84
2023/06/13 04:33:29;;;;;;;8.63;5.25;;;14.00;99.90;;;;;;5065307;28;20086;-84
2023/06/13 04:36:03;;;;;;;6.15;4.88;;;14.00;99.90;;;;;;5067960;28;20039;-83
2023/06/13 04:38:29;;;;;;;9.15;5.20;;;14.00;99.90;;;;;;5061844;28;20486;-84
2023/06/13 04:40:55;;;;;;;9.82;4.90;;;14.10;99.90;;;;;;5067319;28;20424;-82
2023/06/13 04:43:21;;;;;;;9.32;4.63;;;14.20;99.90;;;;;;5073331;28;20042;-83
2023/06/13 04:45:48;;;;;;;9.43;5.72;;;14.20;99.90;;;;;;5071566;28;20275;-84
2023/06/13 04:48:15;;;;;;;11.63;5.32;;;14.20;99.90;;;;;;5063930;28;20049;-83
2023/06/13 04:50:44;;;;;;;9.48;4.85;;;14.30;99.90;;;;;;5070510;28;20359;-83
2023/06/13 04:53:11;;;;;;;12.23;5.05;;;14.40;99.90;;;;;;5077607;28;20618;-84
2023/06/13 04:55:40;;;;;;;10.13;5.05;;;14.40;99.90;;;;;;5075420;28;20029;-84
2023/06/13 04:58:06;;;;;;;8.73;4.35;;;14.50;99.90;;;;;;5081086;28;20077;-84
2023/06/13 05:00:35;;;;;;;13.77;5.60;;;14.50;99.90;;;;;;5085971;28;20077;-83
2023/06/13 05:03:01;;;;;;;10.55;4.90;;;14.60;99.90;;;;;;5073869;28;20439;-84
2023/06/13 05:05:26;;;;;;;7.45;4.50;;;14.70;99.90;;;;;;5075469;28;20237;-84
2023/06/13 05:07:57;;;;;;;4.95;4.28;;;14.70;99.90;;;;;;5075505;28;20028;-84
2023/06/13 05:10:27;;;;;;;7.80;4.75;;;14.70;99.90;;;;;;5075794;28;20024;-83
2023/06/13 05:12:53;;;;;;;6.82;4.90;;;14.80;99.90;;;;;;5080907;28;20043;-84
2023/06/13 05:15:20;;;;;;;10.05;4.32;;;14.80;99.90;;;;;;5076617;28;20028;-84
2023/06/13 05:17:46;;;;;;;6.78;4.80;;;14.90;99.90;;;;;;5078166;28;20028;-84
2023/06/13 05:20:12;;;;;;;15.25;5.20;;;15.00;99.90;;;;;;5075626;28;20028;-82
2023/06/13 05:22:41;;;;;;;9.27;5.28;;;15.10;99.90;;;;;;5071559;28;20109;-84
2023/06/13 05:25:12;;;;;;;12.88;5.55;;;15.10;99.90;;;;;;5069750;28;20020;-84
2023/06/13 05:27:38;;;;;;;6.00;4.68;;;15.20;99.90;;;;;;5071163;28;20508;-83
2023/06/13 05:30:10;;;;;;;6.93;4.70;;;15.20;99.90;;;;;;5085757;28;20032;-84
2023/06/13 05:32:36;;;;;;;8.65;5.10;;;15.30;99.90;;;;;;5074902;28;20059;-86
2023/06/13 05:35:02;;;;;;;5.97;4.90;;;15.40;99.90;;;;;;5070680;28;20028;-84
2023/06/13 05:37:28;;;;;;;11.50;5.50;;;15.40;99.90;;;;;;5083217;28;20068;-82
2023/06/13 05:39:54;;;;;;;10.43;5.30;;;15.50;99.90;;;;;;5068433;28;20162;-82
2023/06/13 05:42:20;;;;;;;8.43;5.88;;;15.50;99.90;;;;;;5075568;28;20031;-84
2023/06/13 05:44:45;;;;;;;13.02;4.70;;;15.60;99.90;;;;;;5074776;28;20028;-84
2023/06/13 05:47:11;;;;;;;9.05;5.60;;;15.60;99.90;;;;;;5083251;28;20028;-84
2023/06/13 05:49:36;;;;;;;8.20;5.32;;;15.70;99.90;;;;;;5083172;28;20058;-83
2023/06/13 05:52:02;;;;;;;15.45;5.72;;;15.70;99.90;;;;;;5072848;28;20036;-84
2023/06/13 05:54:28;;;;;;;11.90;6.30;;;15.80;99.90;;;;;;5084693;28;20032;-84
2023/06/13 05:56:53;;;;;;;12.88;5.97;;;15.80;99.90;;;;;;5076665;28;20381;-83
2023/06/13 05:59:19;;;;;;;9.65;6.18;;;15.90;99.90;;;;;;5076605;28;20501;-83
2023/06/13 06:01:49;;;;;;;12.07;5.70;;;16.00;99.90;;;;;;5075067;28;20447;-84
2023/06/13 06:04:14;;;;;;;13.02;7.78;;;16.00;99.90;;;;;;5076387;28;20219;-84
2023/06/13 06:06:40;;;;;;;23.98;7.00;;;16.00;99.90;;;;;;5078344;28;20529;-83
2023/06/13 06:09:06;;;;;;;14.85;7.70;;;16.10;99.90;;;;;;5081449;28;20466;-83
2023/06/13 06:11:33;;;;;;;13.57;6.88;;;16.10;99.90;;;;;;5083777;28;20059;-82
2023/06/13 06:13:59;;;;;;;17.15;7.60;;;16.10;99.90;;;;;;5081478;28;20063;-83
2023/06/13 06:16:24;;;;;;;14.07;8.35;;;16.20;99.90;;;;;;5085638;28;20462;-83
2023/06/13 06:18:51;;;;;;;11.75;7.50;;;16.30;99.90;;;;;;5084956;28;20017;-83
2023/06/13 06:21:16;;;;;;;14.43;7.18;;;16.30;99.90;;;;;;5072906;28;20020;-83
2023/06/13 06:23:42;;;;;;;9.35;7.00;;;16.30;99.90;;;;;;5075190;28;20028;-82
2023/06/13 06:26:10;;;;;;;15.38;6.85;;;16.30;99.90;;;;;;5072092;28;20028;-82
2023/06/13 06:28:35;;;;;;;9.30;6.35;;;16.30;99.90;;;;;;5065770;28;20028;-82
2023/06/13 06:31:01;;;;;;;14.45;6.43;;;16.30;99.90;;;;;;5066337;28;20048;-82
2023/06/13 06:33:27;;;;;;;16.30;6.88;;;16.30;99.90;;;;;;5072403;28;20125;-82
2023/06/13 06:35:53;;;;;;;15.93;7.63;;;16.40;99.90;;;;;;5088934;28;20024;-82
2023/06/13 06:38:19;;;;;;;12.18;5.97;;;16.50;99.90;;;;;;5084905;28;20077;-82
2023/06/13 06:40:45;;;;;;;18.48;7.40;;;16.50;99.90;;;;;;5087973;28;20081;-82
2023/06/13 06:43:10;;;;;;;13.55;6.50;;;16.60;99.90;;;;;;5078525;28;20032;-82
2023/06/13 06:45:36;;;;;;;16.85;7.22;;;16.60;99.90;;;;;;5081162;28;20024;-82
2023/06/13 06:48:02;;;;;;;12.00;6.63;;;16.60;99.90;;;;;;5088138;28;20034;-82
2023/06/13 06:50:27;;;;;;;14.68;6.65;;;16.70;99.90;;;;;;5087908;28;20032;-82
2023/06/13 06:52:53;;;;;;;16.30;6.68;;;16.70;99.90;;;;;;5085205;28;20043;-83
2023/06/13 06:55:19;;;;;;;18.52;6.78;;;16.80;99.90;;;;;;5090105;28;20461;-83
2023/06/13 06:57:44;;;;;;;11.48;6.03;;;16.80;99.90;;;;;;5076006;28;20585;-82
2023/06/13 07:00:14;;;;;;;11.65;6.07;;;16.80;99.90;;;;;;5083297;28;20029;-82
2023/06/13 07:02:42;;;;;;;8.40;5.07;;;16.90;99.90;;;;;;5079545;28;20017;-82
2023/06/13 07:05:09;;;;;;;14.68;6.70;;;17.00;99.90;;;;;;5083825;28;20028;-82
2023/06/13 07:07:35;;;;;;;11.55;6.38;;;17.00;99.90;;;;;;5068486;28;20564;-82
2023/06/13 07:10:01;;;;;;;18.45;6.35;;;17.10;99.90;;;;;;5076889;28;20392;-83
2023/06/13 07:12:26;;;;;;;13.10;7.28;;;17.20;99.90;;;;;;5067964;28;20540;-82
2023/06/13 07:14:52;;;;;;;13.25;5.57;;;17.20;99.90;;;;;;5080099;28;20115;-82
2023/06/13 07:17:18;;;;;;;13.70;5.57;;;17.30;99.90;;;;;;5085035;28;20040;-82
2023/06/13 07:19:43;;;;;;;14.77;7.45;;;17.40;99.90;;;;;;5071201;28;20257;-82
2023/06/13 07:22:09;;;;;;;13.02;6.97;;;17.50;99.90;;;;;;5065973;28;20028;-82
2023/06/13 07:24:34;;;;;;;12.45;6.47;;;17.50;99.90;;;;;;5068476;28;20494;-83
2023/06/13 07:27:00;;;;;;;14.80;6.53;;;17.60;99.90;;;;;;5079094;28;20075;-83
2023/06/13 07:29:25;;;;;;;12.15;6.90;;;17.60;99.90;;;;;;5081124;28;20163;-82
2023/06/13 07:31:51;;;;;;;11.90;6.45;;;17.80;99.90;;;;;;5077729;28;20266;-83
2023/06/13 07:34:17;;;;;;;10.57;5.85;;;17.80;99.90;;;;;;5075811;28;20404;-82
2023/06/13 07:36:43;;;;;;;10.40;5.57;;;17.90;99.90;;;;;;5072458;28;20492;-82
2023/06/13 07:39:12;;;;;;;10.45;5.18;;;17.90;99.90;;;;;;5067474;28;20064;-82
2023/06/13 07:41:38;;;;;;;9.70;4.70;;;18.00;99.90;;;;;;5087080;28;20077;-82
2023/06/13 07:44:05;;;;;;;13.23;5.35;;;18.10;99.90;;;;;;5083143;28;20432;-83
2023/06/13 07:46:31;;;;;;;8.00;5.60;;;18.20;99.90;;;;;;5086468;28;20081;-83
2023/06/13 07:48:56;;;;;;;13.60;5.78;;;18.30;99.90;;;;;;5080027;28;20028;-83
2023/06/13 07:51:22;;;;;;;9.80;5.80;;;18.40;99.90;;;;;;5088527;28;20439;-83
2023/06/13 07:53:47;;;;;;;9.40;6.13;;;18.50;99.90;;;;;;5079560;28;20115;-83
2023/06/13 07:56:13;;;;;;;7.35;4.88;;;18.70;99.90;;;;;;5075212;28;20127;-84
2023/06/13 07:58:39;;;;;;;13.20;5.20;;;18.70;99.90;;;;;;5070451;28;20032;-82
2023/06/13 08:01:04;;;;;;;14.55;6.22;;;18.80;99.90;;;;;;5079273;28;20036;-82
2023/06/13 08:03:30;;;;;;;13.07;5.82;;;18.90;99.90;;;;;;5069148;28;20041;-82
2023/06/13 08:05:57;;;;;;;8.38;4.93;;;19.00;99.90;;;;;;5078082;28;20032;-83
2023/06/13 08:08:23;;;;;;;7.47;5.38;;;19.00;99.90;;;;;;5079932;28;20028;-83
2023/06/13 08:10:49;;;;;;;10.82;6.30;;;19.00;99.90;;;;;;5088961;28;20020;-83
2023/06/13 08:13:14;;;;;;;7.72;4.95;;;19.20;99.90;;;;;;5088592;28;20039;-83
2023/06/13 08:15:40;;;;;;;23.17;5.70;;;19.20;99.90;;;;;;5088651;28;20055;-83
2023/06/13 08:18:05;;;;;;;12.60;5.85;;;19.40;99.90;;;;;;5087390;28;20035;-83
2023/06/13 08:20:32;;;;;;;10.73;5.75;;;19.40;99.90;;;;;;5080947;28;20032;-83
2023/06/13 08:22:59;;;;;;;7.60;5.13;;;19.40;99.90;;;;;;5088474;28;20093;-83
2023/06/13 08:25:25;;;;;;;11.40;4.90;;;19.50;99.90;;;;;;5078439;28;20523;-83
2023/06/13 08:27:52;;;;;;;6.65;4.57;;;19.50;99.90;;;;;;5087376;28;20071;-83
2023/06/13 08:30:18;;;;;;;9.00;5.07;;;19.50;99.90;;;;;;5088273;28;20035;-83
2023/06/13 08:32:46;;;;;;;14.88;4.90;;;19.50;99.90;;;;;;5086291;28;20048;-82
2023/06/13 08:35:12;;;;;;;9.27;5.07;;;19.60;99.90;;;;;;5088071;28;20046;-83
2023/06/13 08:37:38;;;;;;;8.48;5.03;;;19.60;99.90;;;;;;5087158;28;20082;-83
2023/06/13 08:40:09;;;;;;;7.47;5.20;;;19.70;99.90;;;;;;5088197;28;20118;-83
2023/06/13 08:42:38;;;;;;;11.88;5.72;;;19.60;99.90;;;;;;5086906;28;20035;-83
2023/06/13 08:45:04;;;;;;;9.88;5.90;;;19.70;99.90;;;;;;5088020;28;20458;-83
2023/06/13 08:47:30;;;;;;;12.15;4.88;;;19.70;99.90;;;;;;5088101;28;20366;-83
2023/06/13 08:49:55;;;;;;;11.48;5.53;;;19.80;99.90;;;;;;5088540;28;20028;-83
2023/06/13 08:52:25;;;;;;;9.15;5.40;;;19.80;99.90;;;;;;5085641;28;20044;-83
2023/06/13 08:54:56;;;;;;;7.25;4.55;;;19.90;99.90;;;;;;5082366;28;20511;-83
2023/06/13 08:57:27;;;;;;;8.30;4.68;;;20.00;99.90;;;;;;5087893;28;20458;-83
2023/06/13 08:59:53;;;;;;;8.30;5.47;;;20.10;99.90;;;;;;5074080;28;20043;-82
2023/06/13 09:02:20;;;;;;;15.68;5.68;;;20.10;99.90;;;;;;5073955;28;20047;-82
2023/06/13 09:04:47;;;;;;;12.00;5.50;;;20.20;99.90;;;;;;5083526;28;20127;-83
2023/06/13 09:07:16;;;;;;;11.88;5.95;;;20.30;99.90;;;;;;5081112;28;20036;-83
2023/06/13 09:09:42;;;;;;;8.43;5.10;;;20.40;99.90;;;;;;5088140;28;20024;-83
2023/06/13 09:12:11;;;;;;;11.93;4.68;;;20.40;99.90;;;;;;5087903;28;20161;-83
2023/06/13 09:14:38;;;;;;;14.63;4.47;;;20.40;99.90;;;;;;5086963;28;20080;-82
2023/06/13 09:17:05;;;;;;;11.30;4.43;;;20.50;99.90;;;;;;5086494;28;20024;-83
2023/06/13 09:19:30;;;;;;;13.35;5.03;;;20.50;99.90;;;;;;5087796;28;20028;-82
2023/06/13 09:21:56;;;;;;;17.85;5.22;;;20.60;99.90;;;;;;5084299;28;20151;-82
2023/06/13 09:24:24;;;;;;;18.48;5.32;;;20.60;99.90;;;;;;5081399;28;20051;-83
2023/06/13 09:26:50;;;;;;;8.68;4.40;;;20.80;99.90;;;;;;5081580;28;20118;-82
2023/06/13 09:29:16;;;;;;;6.00;4.13;;;20.80;99.90;;;;;;5080606;28;20139;-82
2023/06/13 09:31:41;;;;;;;10.38;5.03;;;20.90;99.90;;;;;;5083662;28;20507;-82
2023/06/13 09:34:07;;;;;;;12.18;4.72;;;21.00;99.90;;;;;;5080807;28;20036;-83
2023/06/13 09:36:38;;;;;;;16.05;5.15;;;21.00;98.70;;;;;;5063409;28;20025;-81
2023/06/13 09:39:04;;;;;;;8.48;4.28;;;21.10;99.00;;;;;;5064386;28;20033;-82
2023/06/13 09:41:31;;;;;;;9.60;4.35;;;21.20;94.70;;;;;;5062446;28;20029;-84
2023/06/13 09:44:04;;;;;;;7.47;4.43;;;21.20;85.60;;;;;;5075545;28;20054;-82
2023/06/13 09:46:32;;;;;;;11.82;4.82;;;21.30;86.80;;;;;;5073391;28;20071;-82
2023/06/13 09:48:58;;;;;;;8.48;4.05;;;21.30;78.00;;;;;;5071370;28;20063;-82
2023/06/13 09:51:25;;;;;;;13.15;3.97;;;21.40;78.50;;;;;;5075126;28;20051;-81
2023/06/13 09:53:51;;;;;;;5.93;4.57;;;21.40;77.50;;;;;;5074927;28;20523;-82
2023/06/13 09:56:17;;;;;;;10.85;4.15;;;21.50;73.60;;;;;;5080716;28;20081;-81
2023/06/13 09:58:42;;;;;;;10.85;4.65;;;21.50;76.00;;;;;;5068195;28;20465;-81
2023/06/13 10:01:15;;;;;;;12.30;3.92;;;21.60;77.30;;;;;;5073040;28;20043;-81
2023/06/13 10:03:43;;;;;;;11.20;4.90;;;21.70;72.40;;;;;;5081315;28;20112;-82
2023/06/13 10:06:09;;;;;;;13.40;4.43;;;21.70;68.80;;;;;;5084975;28;20046;-82
2023/06/13 10:08:35;;;;;;;8.10;5.35;;;21.60;70.50;;;;;;5081800;28;20028;-82
2023/06/13 10:11:18;;;;;;;10.15;4.38;;;21.60;69.00;;;;;;5084631;28;20236;-82
2023/06/13 10:13:53;;;;;;;8.07;4.13;;;21.50;69.10;;;;;;5086590;28;20032;-82
2023/06/13 10:16:20;;;;;;;14.82;4.10;;;21.40;72.00;;;;;;5082847;28;20059;-81
2023/06/13 10:18:51;;;;;;;11.98;4.20;;;21.40;76.40;;;;;;5081687;28;20461;-81
2023/06/13 10:21:17;;;;;;;6.25;4.13;;;21.50;70.00;;;;;;5085008;28;20431;-82
2023/06/13 10:23:49;;;;;;;8.50;4.38;;;21.60;64.90;;;;;;5086192;28;20025;-82
2023/06/13 10:26:24;;;;;;;7.38;4.53;;;21.70;64.60;;;;;;5085264;28;20135;-81
2023/06/13 10:29:05;;;;;;;9.75;4.63;;;21.80;62.50;;;;;;5070707;28;20386;-81
2023/06/13 10:31:43;;;;;;;14.27;4.55;;;21.90;63.80;;;;;;5076839;28;20059;-81
2023/06/13 10:34:43;;;;;;;8.70;4.93;;;22.10;63.20;;;;;;5079368;28;20051;-81
2023/06/13 10:37:38;;;;;;;13.13;4.20;;;22.20;57.30;;;;;;5082144;28;20040;-81
2023/06/13 10:40:19;;;;;;;10.13;4.63;;;22.20;57.00;;;;;;5083585;28;20504;-81
2023/06/13 10:43:17;;;;;;;10.23;4.30;;;22.20;54.70;;;;;;5084775;28;20032;-81
2023/06/13 10:45:45;;;;;;;7.50;4.70;;;22.30;54.70;;;;;;5046263;28;20040;-81
2023/06/13 10:48:11;;;;;;;8.68;4.50;;;22.30;53.10;;;;;;5085360;28;20614;-81
2023/06/13 10:50:41;;;;;;;8.95;4.20;;;22.40;51.60;;;;;;5084386;28;20032;-81
2023/06/13 10:53:33;;;;;;;9.27;4.68;;;22.40;53.30;;;;;;5079743;28;20119;-81
2023/06/13 10:56:03;;;;;;;8.93;3.80;;;22.40;53.00;;;;;;5068475;28;20035;-82
2023/06/13 10:58:29;;;;;;;9.13;4.53;;;22.40;51.40;;;;;;5063471;28;20044;-82
2023/06/13 11:00:55;;;;;;;6.90;4.40;;;22.40;49.10;;;;;;5074338;28;20036;-81
2023/06/13 11:03:30;;;;;;;7.53;4.43;;;22.50;52.10;;;;;;5079708;28;20035;-81
2023/06/13 11:05:55;;;;;;;16.63;4.83;;;22.50;52.20;;;;;;5072660;28;20034;-82
2023/06/13 11:08:25;;;;;;;9.05;4.22;;;22.60;51.80;;;;;;5074785;28;20020;-82
2023/06/13 11:10:52;;;;;;;8.95;4.55;;;22.50;52.20;;;;;;5083463;28;20042;-82
2023/06/13 11:13:26;;;;;;;7.68;4.63;;;22.60;51.80;;;;;;5062522;28;20052;-82
2023/06/13 11:15:56;;;;;;;11.80;5.15;;;22.50;51.40;;;;;;5086650;28;20032;-82
2023/06/13 11:18:23;;;;;;;10.45;4.50;;;22.40;50.20;;;;;;5073752;28;20420;-81
2023/06/13 11:20:49;;;;;;;8.32;4.32;;;22.30;50.80;;;;;;5071347;28;20487;-82
2023/06/13 11:23:33;;;;;;;4.88;4.13;;;22.20;50.80;;;;;;5089697;28;20385;-82
2023/06/13 11:25:59;;;;;;;11.13;4.55;;;22.10;51.70;;;;;;5076856;28;20031;-81
2023/06/13 11:28:25;;;;;;;7.07;4.63;;;22.20;52.00;;;;;;5086704;28;20028;-82
2023/06/13 11:30:52;;;;;;;6.85;4.30;;;22.20;49.40;;;;;;5082368;28;20031;-81
2023/06/13 11:33:19;;;;;;;8.05;4.75;;;22.20;48.90;;;;;;5076313;28;20327;-81
2023/06/13 11:35:55;;;;;;;9.75;4.28;;;22.30;48.90;;;;;;5073921;28;20029;-80
2023/06/13 11:38:57;;;;;;;7.05;4.15;;;22.40;49.60;;;;;;5078272;28;20029;-82
2023/06/13 11:41:23;;;;;;;8.45;3.95;;;22.50;50.20;;;;;;5073083;28;20024;-81
2023/06/13 11:43:48;;;;;;;6.78;4.55;;;22.50;49.50;;;;;;5075354;28;20027;-82
2023/06/13 11:46:14;;;;;;;5.40;4.28;;;22.50;48.60;;;;;;5075472;28;20183;-81
2023/06/13 11:48:40;;;;;;;12.43;4.97;;;22.60;48.20;;;;;;5069383;28;20556;-81
2023/06/13 11:51:15;;;;;;;8.05;4.43;;;22.50;48.40;;;;;;5068529;28;20500;-81
2023/06/13 11:53:47;;;;;;;;;;;22.40;48.30;;;;;;5072420;28;20114;-82
2023/06/13 11:56:12;;;;;;;8.18;4.70;;;22.50;47.30;;;;;;5073294;28;19955;-81
2023/06/13 11:58:37;;;;;;;13.23;4.15;;;22.60;46.80;;;;;;5065661;28;20551;-82
2023/06/13 12:01:03;;;;;;;6.47;3.80;;;22.70;48.90;;;;;;5077557;28;20432;-82
2023/06/13 12:03:29;;;;;;;11.65;4.50;;;22.70;47.90;;;;;;5073048;28;20036;-81
2023/06/13 12:05:56;;;;;;;9.13;4.80;;;22.70;48.30;;;;;;5064871;28;20031;-80
2023/06/13 12:08:23;;;;;;;11.20;3.70;;;22.60;48.60;;;;;;5083092;28;20023;-82
2023/06/13 12:10:48;;;;;;;7.75;4.80;;;22.60;48.70;;;;;;5081293;28;20032;-81
2023/06/13 12:13:17;;;;;;;8.02;4.25;;;22.60;49.10;;;;;;5073959;28;20432;-81
2023/06/13 12:15:43;;;;;;;12.07;4.30;;;22.60;48.20;;;;;;5076607;28;20024;-82
2023/06/13 12:18:09;;;;;;;4.28;3.50;;;22.70;47.10;;;;;;5069130;28;20148;-81
2023/06/13 12:20:53;;;;;;;5.72;4.20;;;22.80;46.50;;;;;;5069677;28;20119;-81
2023/06/13 12:23:19;;;;;;;6.30;4.32;;;23.00;47.00;;;;;;5075395;28;20027;-81
2023/06/13 12:25:47;;;;;;;5.80;3.90;;;23.10;46.90;;;;;;5074918;28;20541;-81
2023/06/13 12:28:15;;;;;;;8.30;6.03;;;23.10;46.30;;;;;;5076340;28;20028;-81
2023/06/13 12:30:42;;;;;;;10.18;6.22;;;23.10;47.40;;;;;;5074343;28;20466;-81
2023/06/13 12:33:14;;;;;;;9.02;5.07;;;23.00;47.40;;;;;;5067568;28;20408;-81
2023/06/13 12:35:54;;;;;;;5.35;4.22;;;22.90;47.40;;;;;;5075199;28;20477;-82
2023/06/13 12:38:28;;;;;;;6.60;3.90;;;22.80;48.10;;;;;;5076146;28;20034;-81
2023/06/13 12:40:54;;;;;;;10.60;4.50;;;22.70;48.10;;;;;;5068369;28;20057;-81
2023/06/13 12:43:26;;;;;;;10.30;5.05;;;22.80;47.90;;;;;;5076428;28;20123;-81
2023/06/13 12:45:55;;;;;;;8.13;4.05;;;22.80;48.10;;;;;;5070699;28;20085;-82
2023/06/13 12:48:21;;;;;;;9.93;4.72;;;22.80;46.60;;;;;;5072855;28;20081;-82